Time;durP1;ratioP1;P1;durP2;ratioP2;P2;SDS_P1;SDS_P2;PMS_P1;PMS_P2;Temp;Humidity;BMP_temperature;BMP_pressure;BME280_temperature;BME280_humidity;BME280_pressure;Samples;Min_cycle;Max_cycle;Signal;HPM_P1;HPM_P2
2022/05/26 00:02:11;;;;;;;4.10;3.35;;;19.20;59.10;;;;;;6214569;23;20205;-86
2022/05/26 00:04:38;;;;;;;4.15;3.75;;;19.30;59.20;;;;;;6214035;23;20131;-87
2022/05/26 00:07:04;;;;;;;3.97;3.58;;;19.30;59.10;;;;;;6189770;23;20146;-87
2022/05/26 00:09:29;;;;;;;4.03;3.63;;;19.20;59.00;;;;;;6189710;23;20284;-87
2022/05/26 00:11:55;;;;;;;3.55;3.25;;;19.20;59.20;;;;;;6190107;23;20193;-87
2022/05/26 00:14:20;;;;;;;4.93;3.60;;;19.30;59.10;;;;;;6189871;23;20170;-86
2022/05/26 00:16:46;;;;;;;3.97;3.53;;;19.20;59.10;;;;;;6213968;23;20131;-87
2022/05/26 00:19:14;;;;;;;4.35;3.50;;;19.20;59.00;;;;;;6214034;23;20166;-87
2022/05/26 00:21:39;;;;;;;4.97;3.65;;;19.20;59.00;;;;;;6213726;23;20134;-86
2022/05/26 00:24:05;;;;;;;5.10;3.60;;;19.20;59.10;;;;;;6189718;23;20149;-86
2022/05/26 00:26:31;;;;;;;4.38;3.35;;;19.20;59.00;;;;;;6214003;23;20469;-86
2022/05/26 00:28:56;;;;;;;4.47;3.97;;;19.20;59.10;;;;;;6164635;23;20149;-86
2022/05/26 00:31:22;;;;;;;3.92;3.53;;;19.20;59.10;;;;;;6213914;23;20135;-87
2022/05/26 00:33:48;;;;;;;3.63;3.33;;;19.20;59.00;;;;;;6189482;23;20157;-87
2022/05/26 00:36:15;;;;;;;3.55;3.25;;;19.20;59.10;;;;;;6189209;23;20135;-87
2022/05/26 00:38:41;;;;;;;4.07;3.45;;;19.10;59.10;;;;;;6166158;23;1132302;-86
2022/05/26 00:41:10;;;;;;;3.97;3.22;;;19.20;59.20;;;;;;6215677;23;20164;-87
2022/05/26 00:43:40;;;;;;;4.50;3.75;;;19.20;59.20;;;;;;6190940;23;20150;-86
2022/05/26 00:46:21;;;;;;;3.58;3.28;;;19.20;59.20;;;;;;6190190;23;20578;-86
2022/05/26 00:48:50;;;;;;;4.00;3.60;;;19.10;59.20;;;;;;6165909;23;20173;-86
2022/05/26 00:51:16;;;;;;;4.25;3.72;;;19.10;59.20;;;;;;6215079;23;20138;-87
2022/05/26 00:53:44;;;;;;;3.90;3.50;;;19.20;59.20;;;;;;6215196;23;20585;-86
2022/05/26 00:56:17;;;;;;;4.75;3.70;;;19.10;59.20;;;;;;6190188;23;20138;-86
2022/05/26 00:58:45;;;;;;;3.80;3.45;;;19.20;59.30;;;;;;6215291;23;20172;-87
2022/05/26 01:01:11;;;;;;;5.93;3.55;;;19.10;59.30;;;;;;6191063;23;20154;-86
2022/05/26 01:03:39;;;;;;;3.97;3.58;;;19.10;59.20;;;;;;6185683;23;20537;-86
2022/05/26 01:06:24;;;;;;;4.20;3.50;;;19.20;59.20;;;;;;6165819;23;20168;-86
2022/05/26 01:08:59;;;;;;;4.40;3.53;;;19.10;59.10;;;;;;6190906;23;20217;-86
2022/05/26 01:11:29;;;;;;;4.00;3.60;;;19.10;59.20;;;;;;6190803;23;20138;-87
2022/05/26 01:14:00;;;;;;;5.97;3.50;;;19.10;59.10;;;;;;6191156;23;20146;-86
2022/05/26 01:16:39;;;;;;;3.65;3.35;;;19.10;59.20;;;;;;6165611;23;20173;-86
2022/05/26 01:19:46;;;;;;;3.90;3.45;;;19.10;59.20;;;;;;6190637;23;20162;-87
2022/05/26 01:22:25;;;;;;;3.75;3.33;;;19.10;59.20;;;;;;6194826;23;20156;-87
2022/05/26 01:25:21;;;;;;;3.65;3.35;;;19.10;59.20;;;;;;6165320;23;20229;-86
2022/05/26 01:28:02;;;;;;;4.15;3.40;;;19.10;59.20;;;;;;6215288;23;20454;-87
2022/05/26 01:30:35;;;;;;;4.70;3.30;;;19.10;59.20;;;;;;6190527;23;20192;-86
2022/05/26 01:33:12;;;;;;;3.95;3.55;;;19.10;59.30;;;;;;6166023;23;20221;-87
2022/05/26 01:35:52;;;;;;;4.05;3.40;;;19.10;59.30;;;;;;6216740;23;20535;-86
2022/05/26 01:38:34;;;;;;;4.10;3.55;;;19.10;59.40;;;;;;6219538;23;20718;-86
2022/05/26 01:41:10;;;;;;;3.90;3.45;;;19.10;59.30;;;;;;6195034;23;20149;-86
2022/05/26 01:44:12;;;;;;;4.18;3.45;;;19.10;59.20;;;;;;6171173;23;20164;-87
2022/05/26 01:46:40;;;;;;;5.65;3.60;;;19.10;59.30;;;;;;6220258;23;20190;-86
2022/05/26 01:49:30;;;;;;;3.83;3.42;;;19.10;59.20;;;;;;6171107;23;20153;-87
2022/05/26 01:52:06;;;;;;;3.85;3.45;;;19.10;59.10;;;;;;6175996;23;20145;-86
2022/05/26 01:54:46;;;;;;;4.75;3.70;;;19.10;59.30;;;;;;6195737;23;20220;-86
2022/05/26 01:57:23;;;;;;;4.72;3.55;;;19.10;59.30;;;;;;6195249;23;20145;-86
2022/05/26 01:59:53;;;;;;;4.35;3.65;;;19.10;59.20;;;;;;6195372;23;20604;-87
2022/05/26 02:02:22;;;;;;;4.03;3.63;;;19.00;59.30;;;;;;6219607;23;20142;-86
2022/05/26 02:04:51;;;;;;;4.28;3.72;;;19.10;59.30;;;;;;6194748;23;20137;-86
2022/05/26 02:07:35;;;;;;;4.45;3.58;;;19.00;59.40;;;;;;6171384;23;20141;-87
2022/05/26 02:10:04;;;;;;;3.60;3.30;;;19.00;59.30;;;;;;6195057;23;20553;-87
2022/05/26 02:12:33;;;;;;;4.10;3.70;;;19.00;59.30;;;;;;6195322;23;20175;-86
2022/05/26 02:15:04;;;;;;;4.05;3.53;;;19.00;59.30;;;;;;6195761;23;20125;-87
2022/05/26 02:17:32;;;;;;;4.88;3.55;;;19.00;59.40;;;;;;6196053;23;20569;-86
2022/05/26 02:20:04;;;;;;;4.38;3.53;;;19.00;59.40;;;;;;6170117;23;20635;-87
2022/05/26 02:22:32;;;;;;;4.22;3.20;;;19.00;59.40;;;;;;6171773;23;20153;-86
2022/05/26 02:25:05;;;;;;;4.93;3.50;;;19.00;59.30;;;;;;6219974;23;20130;-86
2022/05/26 02:27:31;;;;;;;6.70;3.72;;;19.00;59.40;;;;;;6195751;23;20134;-86
2022/05/26 02:30:00;;;;;;;4.40;3.47;;;19.00;59.40;;;;;;6195656;23;20140;-87
2022/05/26 02:32:36;;;;;;;5.05;3.78;;;19.00;59.40;;;;;;6171250;23;20561;-87
2022/05/26 02:35:15;;;;;;;4.47;3.55;;;19.10;59.40;;;;;;6170634;23;20507;-87
2022/05/26 02:37:42;;;;;;;3.60;3.20;;;19.00;59.40;;;;;;6191999;23;20193;-87
2022/05/26 02:40:08;;;;;;;3.80;3.40;;;19.00;59.40;;;;;;6190585;23;20260;-86
2022/05/26 02:42:44;;;;;;;4.65;3.65;;;19.00;59.40;;;;;;6195152;23;20144;-87
2022/05/26 02:45:09;;;;;;;4.40;3.70;;;19.00;59.40;;;;;;6170954;23;20206;-86
2022/05/26 02:47:50;;;;;;;4.57;3.50;;;18.90;59.40;;;;;;6194598;23;20134;-87
2022/05/26 02:50:41;;;;;;;3.83;3.22;;;19.00;59.30;;;;;;6219592;23;20561;-86
2022/05/26 02:53:19;;;;;;;4.00;3.60;;;18.90;59.40;;;;;;6172820;23;20142;-86
2022/05/26 02:55:55;;;;;;;4.72;3.42;;;18.90;59.40;;;;;;6197025;23;20130;-87
2022/05/26 02:58:36;;;;;;;5.18;3.63;;;19.00;59.50;;;;;;6170799;23;20145;-86
2022/05/26 03:01:20;;;;;;;3.88;3.38;;;18.90;60.20;;;;;;6197890;23;20149;-87
2022/05/26 03:03:56;;;;;;;3.78;3.33;;;18.90;59.20;;;;;;6194982;23;20145;-87
2022/05/26 03:06:26;;;;;;;3.90;3.40;;;19.00;59.40;;;;;;6219667;23;20125;-87
2022/05/26 03:08:52;;;;;;;3.55;3.17;;;19.00;59.40;;;;;;6195408;23;20580;-86
2022/05/26 03:11:20;;;;;;;3.50;3.20;;;19.00;59.40;;;;;;6194824;23;20130;-86
2022/05/26 03:13:50;;;;;;;3.75;3.38;;;19.00;59.40;;;;;;6194916;23;20137;-86
2022/05/26 03:16:16;;;;;;;3.92;3.33;;;19.00;59.30;;;;;;6161225;23;20520;-87
2022/05/26 03:18:41;;;;;;;5.38;3.85;;;18.90;59.30;;;;;;6160927;23;20153;-87
2022/05/26 03:21:09;;;;;;;5.03;3.50;;;19.00;59.20;;;;;;6161497;23;20157;-87
2022/05/26 03:23:39;;;;;;;4.47;3.35;;;19.00;59.30;;;;;;6161222;23;20139;-87
2022/05/26 03:26:06;;;;;;;3.42;3.13;;;19.00;59.20;;;;;;6161570;23;20139;-87
2022/05/26 03:28:31;;;;;;;3.78;3.38;;;19.00;59.10;;;;;;6161510;23;20143;-87
2022/05/26 03:30:58;;;;;;;4.68;3.25;;;19.00;59.30;;;;;;6161065;23;20145;-87
2022/05/26 03:33:24;;;;;;;4.57;3.30;;;19.00;59.10;;;;;;6136318;23;20264;-87
2022/05/26 03:41:15;;;;;;;3.58;3.10;;;19.00;59.20;;;;;;6163883;23;20582;-87
2022/05/26 03:43:45;;;;;;;4.55;3.20;;;19.00;59.20;;;;;;6161317;23;20397;-87
2022/05/26 03:46:11;;;;;;;3.60;3.30;;;19.00;59.20;;;;;;6161324;23;20521;-87
2022/05/26 03:48:38;;;;;;;3.60;3.30;;;19.00;59.20;;;;;;6137084;23;20233;-87
2022/05/26 03:51:04;;;;;;;3.95;3.08;;;19.00;59.20;;;;;;6137253;23;20523;-87
2022/05/26 03:53:30;;;;;;;3.40;3.10;;;19.00;59.20;;;;;;6180003;23;20145;-87
2022/05/26 03:55:56;;;;;;;3.72;3.40;;;19.00;59.90;;;;;;6173111;23;20438;-87
2022/05/26 03:58:23;;;;;;;3.53;3.05;;;19.00;59.20;;;;;;6196550;23;20457;-87
2022/05/26 04:00:50;;;;;;;3.53;3.20;;;18.90;59.20;;;;;;6197225;23;20157;-87
2022/05/26 04:03:17;;;;;;;4.70;3.30;;;18.90;59.20;;;;;;6196860;23;20134;-87
2022/05/26 04:05:43;;;;;;;3.83;3.40;;;19.00;59.20;;;;;;6197047;23;20426;-88
2022/05/26 04:08:08;;;;;;;3.85;3.28;;;19.00;59.10;;;;;;6196763;23;20156;-87
2022/05/26 04:10:34;;;;;;;3.47;3.17;;;19.00;59.10;;;;;;6172208;23;20153;-87
2022/05/26 04:12:59;;;;;;;5.57;3.33;;;19.00;59.00;;;;;;6196468;23;20682;-87
2022/05/26 04:15:27;;;;;;;3.40;2.95;;;19.00;59.10;;;;;;6196383;23;20133;-87
2022/05/26 04:17:53;;;;;;;3.80;3.22;;;19.00;59.00;;;;;;6171558;23;20164;-87
2022/05/26 04:20:20;;;;;;;3.60;3.28;;;19.00;58.90;;;;;;6196260;23;20162;-87
2022/05/26 04:22:47;;;;;;;4.18;3.40;;;19.10;59.20;;;;;;6171615;23;20198;-87
2022/05/26 04:25:13;;;;;;;3.60;3.20;;;19.10;58.90;;;;;;6170971;23;20604;-87
2022/05/26 04:27:38;;;;;;;3.53;3.13;;;19.10;58.90;;;;;;6172228;23;20141;-87
2022/05/26 04:30:06;;;;;;;3.40;3.10;;;19.10;58.90;;;;;;6196145;23;20173;-87
2022/05/26 04:32:31;;;;;;;4.18;3.70;;;19.00;58.90;;;;;;6196375;23;20545;-87
2022/05/26 04:34:59;;;;;;;4.05;3.30;;;19.00;58.90;;;;;;6220871;23;20209;-87
2022/05/26 04:37:25;;;;;;;3.50;3.08;;;19.10;58.90;;;;;;6166203;23;20548;-87
2022/05/26 04:39:51;;;;;;;3.53;3.20;;;19.10;58.80;;;;;;6165571;23;20180;-87
2022/05/26 04:42:17;;;;;;;4.07;3.50;;;19.10;58.70;;;;;;6165477;23;20213;-87
2022/05/26 04:44:44;;;;;;;4.20;3.42;;;19.10;58.50;;;;;;6165576;23;20510;-87
2022/05/26 04:47:10;;;;;;;3.50;3.20;;;19.10;58.60;;;;;;6141526;23;20209;-87
2022/05/26 04:49:37;;;;;;;4.47;3.00;;;19.10;58.70;;;;;;6166335;23;20185;-87
2022/05/26 04:52:05;;;;;;;3.20;2.90;;;19.10;58.50;;;;;;6141558;23;20149;-87
2022/05/26 04:54:32;;;;;;;3.50;3.20;;;19.10;58.50;;;;;;6136754;23;20170;-87
2022/05/26 04:56:58;;;;;;;3.38;3.08;;;19.10;58.40;;;;;;6159584;23;20131;-87
2022/05/26 04:59:24;;;;;;;3.20;2.90;;;19.10;58.50;;;;;;6139873;23;20189;-87
2022/05/26 05:01:50;;;;;;;3.45;2.92;;;19.10;58.30;;;;;;6165781;23;20579;-87
2022/05/26 05:04:18;;;;;;;4.75;3.00;;;19.10;58.40;;;;;;6141222;23;20146;-87
2022/05/26 05:06:45;;;;;;;3.92;2.90;;;19.20;58.20;;;;;;6165482;23;20176;-87
2022/05/26 05:09:13;;;;;;;3.53;3.17;;;19.20;58.20;;;;;;6165871;23;20138;-87
2022/05/26 05:11:42;;;;;;;3.40;3.10;;;19.20;58.10;;;;;;6141028;23;20563;-87
2022/05/26 05:14:08;;;;;;;3.80;3.10;;;19.10;58.10;;;;;;6190282;23;20562;-87
2022/05/26 05:16:42;;;;;;;3.08;2.78;;;19.20;58.30;;;;;;6140491;23;20659;-87
2022/05/26 05:19:08;;;;;;;3.30;3.00;;;19.20;57.90;;;;;;6143405;23;20204;-87
2022/05/26 05:21:43;;;;;;;3.10;2.80;;;19.20;58.00;;;;;;6165555;23;20154;-87
2022/05/26 05:24:16;;;;;;;3.88;2.90;;;19.20;57.90;;;;;;6141830;23;20450;-87
2022/05/26 05:26:43;;;;;;;3.30;3.00;;;19.20;57.80;;;;;;6141759;23;20143;-87
2022/05/26 05:29:11;;;;;;;3.25;2.95;;;19.20;58.00;;;;;;6191286;23;20558;-88
2022/05/26 05:31:40;;;;;;;3.35;3.00;;;19.20;58.10;;;;;;6165693;23;20193;-87
2022/05/26 05:34:16;;;;;;;3.35;2.60;;;19.20;57.90;;;;;;6141143;23;20138;-88
2022/05/26 05:36:43;;;;;;;3.45;2.80;;;19.30;57.90;;;;;;6141248;23;20169;-87
2022/05/26 05:39:08;;;;;;;3.28;2.90;;;19.20;57.80;;;;;;6192225;23;20189;-87
2022/05/26 05:41:35;;;;;;;3.33;3.03;;;19.30;57.80;;;;;;6195680;23;20134;-87
2022/05/26 05:44:01;;;;;;;3.00;2.70;;;19.30;57.80;;;;;;6195880;23;20137;-87
2022/05/26 05:46:34;;;;;;;3.10;2.80;;;19.30;57.70;;;;;;6196183;23;20568;-87
2022/05/26 05:49:02;;;;;;;3.83;2.72;;;19.30;57.70;;;;;;6172477;23;20591;-87
2022/05/26 05:51:29;;;;;;;2.90;2.70;;;19.30;57.70;;;;;;6170843;23;20224;-87
2022/05/26 05:53:55;;;;;;;2.90;2.60;;;19.30;57.60;;;;;;6171184;23;20155;-87
2022/05/26 05:56:20;;;;;;;3.28;2.97;;;19.30;57.50;;;;;;6195414;23;20212;-87
2022/05/26 05:58:48;;;;;;;3.20;2.90;;;19.30;57.60;;;;;;6170150;23;20172;-87
2022/05/26 06:01:14;;;;;;;3.97;2.75;;;19.30;57.60;;;;;;6219984;23;20564;-87
2022/05/26 06:03:39;;;;;;;3.10;2.70;;;19.30;57.50;;;;;;6170602;23;20145;-87
2022/05/26 06:06:07;;;;;;;2.70;2.30;;;19.30;57.30;;;;;;6195278;23;20236;-87
2022/05/26 06:08:34;;;;;;;3.05;2.35;;;19.30;57.20;;;;;;6171670;23;20149;-88
2022/05/26 06:11:00;;;;;;;2.60;2.40;;;19.30;57.20;;;;;;6220015;23;20202;-87
2022/05/26 06:13:26;;;;;;;2.30;2.10;;;19.30;57.20;;;;;;6169851;23;20580;-87
2022/05/26 06:15:53;;;;;;;2.92;2.70;;;19.40;57.20;;;;;;6195900;23;20149;-87
2022/05/26 06:18:19;;;;;;;3.45;2.70;;;19.30;57.20;;;;;;6195365;23;20134;-87
2022/05/26 06:20:45;;;;;;;2.58;2.38;;;19.30;57.10;;;;;;6170446;23;20189;-88
2022/05/26 06:23:11;;;;;;;2.60;2.33;;;19.30;57.10;;;;;;6170486;23;20158;-87
2022/05/26 06:25:38;;;;;;;2.60;2.40;;;19.30;56.90;;;;;;6220258;23;20252;-87
2022/05/26 06:30:42;;;;;;;2.92;2.70;;;19.30;57.00;;;;;;6222385;23;20133;-87
2022/05/26 06:38:33;;;;;;;2.90;2.58;;;19.40;56.80;;;;;;6200584;23;20271;-88
2022/05/26 06:42:05;;;;;;;2.53;2.22;;;19.30;56.80;;;;;;6171349;23;20196;-87
2022/05/26 06:43:47;;;;;;;2.70;2.50;;;19.40;57.40;;;;;;6206015;23;20171;-88
2022/05/26 06:46:12;;;;;;;2.70;2.50;;;19.30;56.90;;;;;;6170735;23;20157;-87
2022/05/26 06:48:38;;;;;;;3.17;2.35;;;19.20;57.20;;;;;;6194757;23;20203;-87
2022/05/26 06:51:05;;;;;;;2.58;2.38;;;19.30;57.30;;;;;;6194625;23;20153;-87
2022/05/26 06:53:31;;;;;;;3.67;2.33;;;19.40;57.20;;;;;;6194974;23;20137;-88
2022/05/26 06:55:57;;;;;;;2.63;2.42;;;19.40;57.30;;;;;;6219619;23;20427;-87
2022/05/26 06:58:22;;;;;;;2.60;2.40;;;19.40;57.40;;;;;;6170406;23;20142;-87
2022/05/26 07:00:48;;;;;;;2.60;2.40;;;19.40;57.30;;;;;;6170287;23;20177;-87
2022/05/26 07:03:15;;;;;;;2.70;2.50;;;19.30;57.20;;;;;;6219475;23;20500;-87
2022/05/26 07:05:41;;;;;;;3.03;2.38;;;19.30;57.50;;;;;;6195514;23;20367;-87
2022/05/26 07:08:08;;;;;;;2.60;2.40;;;19.30;57.40;;;;;;6194474;23;20149;-87
2022/05/26 07:10:34;;;;;;;2.67;2.47;;;19.30;57.40;;;;;;6169604;23;20153;-87
2022/05/26 07:13:01;;;;;;;2.58;2.30;;;19.40;57.10;;;;;;6194995;23;20565;-87
2022/05/26 07:15:26;;;;;;;2.63;2.42;;;19.30;57.00;;;;;;6195417;23;20228;-87
2022/05/26 07:17:52;;;;;;;2.55;2.35;;;19.40;57.20;;;;;;6170448;23;20177;-87
2022/05/26 07:20:18;;;;;;;2.50;2.28;;;19.30;57.10;;;;;;6169428;23;20174;-87
2022/05/26 07:22:44;;;;;;;2.55;2.35;;;19.30;56.90;;;;;;6169788;23;20173;-86
2022/05/26 07:25:11;;;;;;;2.42;2.22;;;19.40;57.10;;;;;;6195026;23;20201;-87
2022/05/26 07:27:36;;;;;;;2.60;2.40;;;19.30;56.90;;;;;;6194351;23;20184;-87
2022/05/26 07:30:04;;;;;;;2.47;2.20;;;19.40;56.90;;;;;;6194356;23;20138;-87
2022/05/26 07:32:30;;;;;;;2.63;2.20;;;19.40;56.80;;;;;;6194968;23;20510;-86
2022/05/26 07:34:57;;;;;;;2.63;2.42;;;19.40;56.60;;;;;;6195262;23;20134;-87
2022/05/26 07:42:45;;;;;;;2.83;2.63;;;19.40;56.70;;;;;;6201367;23;20172;-87
2022/05/26 07:45:12;;;;;;;3.72;2.60;;;19.40;56.60;;;;;;6195644;23;20145;-87
2022/05/26 07:47:38;;;;;;;2.88;2.58;;;19.40;56.60;;;;;;6171375;23;20198;-87
2022/05/26 07:50:06;;;;;;;2.50;2.30;;;19.40;56.70;;;;;;6195972;23;20554;-87
2022/05/26 07:52:32;;;;;;;2.67;2.47;;;19.40;56.60;;;;;;6195391;23;20207;-87
2022/05/26 07:54:58;;;;;;;3.20;2.58;;;19.40;56.60;;;;;;6194870;23;20141;-87
2022/05/26 07:57:25;;;;;;;2.40;2.20;;;19.30;56.60;;;;;;6194879;23;20325;-87
2022/05/26 07:59:52;;;;;;;2.60;2.40;;;19.30;56.60;;;;;;6171234;23;20177;-87
2022/05/26 08:02:18;;;;;;;2.42;2.22;;;19.30;56.60;;;;;;6222249;23;20516;-87
2022/05/26 08:04:45;;;;;;;2.45;2.25;;;19.30;56.70;;;;;;6196986;23;20149;-87
2022/05/26 08:07:10;;;;;;;3.53;2.58;;;19.30;56.70;;;;;;6171488;23;20173;-87
2022/05/26 08:09:38;;;;;;;3.03;2.40;;;19.30;56.50;;;;;;6172727;23;20141;-87
2022/05/26 08:12:07;;;;;;;2.50;2.30;;;19.40;56.50;;;;;;6197410;23;20125;-87
2022/05/26 08:14:33;;;;;;;2.78;2.50;;;19.40;56.50;;;;;;6223435;23;20129;-86
2022/05/26 08:16:58;;;;;;;2.95;2.17;;;19.40;56.50;;;;;;6198485;23;20137;-87
2022/05/26 08:19:24;;;;;;;2.50;2.30;;;19.40;56.50;;;;;;6174647;23;20185;-87
2022/05/26 08:21:50;;;;;;;2.13;1.92;;;19.40;56.40;;;;;;6199254;23;20156;-87
2022/05/26 08:24:19;;;;;;;2.25;2.05;;;19.40;56.30;;;;;;6223896;23;20252;-86
2022/05/26 08:26:47;;;;;;;2.70;2.50;;;19.50;56.40;;;;;;6225439;23;20200;-87
2022/05/26 08:29:14;;;;;;;2.55;2.35;;;19.50;56.30;;;;;;6172371;23;20134;-87
2022/05/26 08:31:39;;;;;;;2.58;2.38;;;19.50;56.20;;;;;;6197470;23;20188;-87
2022/05/26 08:34:06;;;;;;;3.15;2.30;;;19.40;56.20;;;;;;6198332;23;20129;-87
2022/05/26 08:36:33;;;;;;;2.83;2.35;;;19.40;56.30;;;;;;6173291;23;20142;-87
2022/05/26 08:39:02;;;;;;;2.55;2.35;;;19.50;56.30;;;;;;6193370;23;20193;-87
2022/05/26 08:41:38;;;;;;;2.50;2.30;;;19.50;56.20;;;;;;6199319;23;20236;-87
2022/05/26 08:44:07;;;;;;;3.28;2.35;;;19.40;56.20;;;;;;6174784;23;20180;-88
2022/05/26 08:46:45;;;;;;;2.53;2.30;;;19.40;56.30;;;;;;6173220;23;20320;-87
2022/05/26 08:49:17;;;;;;;2.35;2.10;;;19.40;56.30;;;;;;6222071;23;20153;-86
2022/05/26 08:51:49;;;;;;;2.45;2.25;;;19.40;56.50;;;;;;6173521;23;20177;-87
2022/05/26 08:54:23;;;;;;;2.67;2.42;;;19.40;56.40;;;;;;6196633;23;20149;-87
2022/05/26 08:56:48;;;;;;;2.70;2.28;;;19.40;56.30;;;;;;6198451;23;20551;-87
2022/05/26 08:59:15;;;;;;;2.53;2.33;;;19.40;56.30;;;;;;6175408;23;20169;-87
2022/05/26 09:01:41;;;;;;;2.47;2.28;;;19.40;56.40;;;;;;6201766;23;20145;-87
2022/05/26 09:04:06;;;;;;;2.47;2.28;;;19.40;56.30;;;;;;6174825;23;20565;-87
2022/05/26 09:12:55;;;;;;;2.45;2.25;;;19.40;56.20;;;;;;6175577;23;20232;-86
2022/05/26 09:14:42;;;;;;;2.50;2.30;;;19.40;56.20;;;;;;6248955;23;20129;-87
2022/05/26 09:17:12;;;;;;;2.20;2.00;;;19.40;55.80;;;;;;6171489;23;20157;-87
2022/05/26 09:19:49;;;;;;;2.22;2.03;;;19.40;55.50;;;;;;6172287;23;20173;-86
2022/05/26 09:22:28;;;;;;;2.63;2.42;;;19.40;55.60;;;;;;6196694;23;20133;-87
2022/05/26 09:24:53;;;;;;;2.33;2.13;;;19.30;55.70;;;;;;6220400;23;20195;-86
2022/05/26 09:27:36;;;;;;;2.35;2.15;;;19.30;55.60;;;;;;6171983;23;20145;-86
2022/05/26 09:30:17;;;;;;;2.15;1.95;;;19.30;55.50;;;;;;6196882;23;20164;-87
2022/05/26 09:32:42;;;;;;;2.60;2.40;;;19.30;55.30;;;;;;6221359;23;20187;-86
2022/05/26 09:35:14;;;;;;;2.45;2.25;;;19.40;55.60;;;;;;6248610;23;20129;-86
2022/05/26 09:37:42;;;;;;;1.98;1.88;;;19.40;55.60;;;;;;6188301;23;20182;-87
2022/05/26 09:40:14;;;;;;;2.47;2.17;;;19.30;55.50;;;;;;6142128;23;20181;-86
2022/05/26 09:42:41;;;;;;;2.20;2.00;;;19.30;55.40;;;;;;6166835;23;20233;-86
2022/05/26 09:45:07;;;;;;;2.30;2.10;;;19.40;55.50;;;;;;6166054;23;20446;-87
2022/05/26 09:47:37;;;;;;;2.25;2.05;;;19.40;55.50;;;;;;6141588;23;20505;-87
2022/05/26 09:50:07;;;;;;;2.17;2.05;;;19.30;55.60;;;;;;6167325;23;20150;-85
2022/05/26 09:52:44;;;;;;;2.38;2.17;;;19.30;55.50;;;;;;6157768;23;20150;-86
2022/05/26 09:55:16;;;;;;;2.58;2.10;;;19.30;56.20;;;;;;6139268;23;20139;-86
2022/05/26 09:57:42;;;;;;;2.25;2.05;;;19.30;55.60;;;;;;6168721;23;20141;-86
2022/05/26 10:00:21;;;;;;;2.40;2.20;;;19.30;55.60;;;;;;6165169;23;20165;-86
2022/05/26 10:02:46;;;;;;;2.38;2.17;;;19.20;55.40;;;;;;6165312;23;20165;-86
2022/05/26 10:05:37;;;;;;;2.58;2.13;;;19.30;55.40;;;;;;6216027;23;20620;-86
2022/05/26 10:08:17;;;;;;;2.58;2.25;;;19.30;55.50;;;;;;6193897;23;20138;-86
2022/05/26 10:10:46;;;;;;;2.50;2.30;;;19.30;55.50;;;;;;6136272;23;20146;-86
2022/05/26 10:13:48;;;;;;;2.28;2.05;;;19.30;55.30;;;;;;6162310;23;20621;-87
2022/05/26 10:16:43;;;;;;;2.45;2.25;;;19.30;55.40;;;;;;6193169;23;20145;-86
2022/05/26 10:19:29;;;;;;;2.33;2.13;;;19.30;55.10;;;;;;6164429;23;20173;-86
2022/05/26 10:22:01;;;;;;;2.72;1.95;;;19.30;55.20;;;;;;6215824;23;20153;-86
2022/05/26 10:25:04;;;;;;;2.40;2.20;;;19.20;54.90;;;;;;6165103;23;20157;-86
2022/05/26 10:28:10;;;;;;;2.05;1.90;;;19.30;55.00;;;;;;6190310;23;20144;-86
2022/05/26 10:30:55;;;;;;;2.10;2.00;;;19.30;54.90;;;;;;6169298;23;20204;-86
2022/05/26 10:33:47;;;;;;;2.55;1.80;;;19.30;54.70;;;;;;6169152;23;20181;-85
2022/05/26 10:36:23;;;;;;;2.28;2.08;;;19.40;54.60;;;;;;6168063;23;20208;-86
2022/05/26 10:39:05;;;;;;;1.95;1.83;;;19.20;54.80;;;;;;6211991;23;20227;-86
2022/05/26 10:41:37;;;;;;;2.65;2.20;;;19.30;54.90;;;;;;6196081;23;20134;-86
2022/05/26 10:44:11;;;;;;;2.08;1.98;;;19.30;54.70;;;;;;6196370;23;20145;-87
2022/05/26 10:46:40;;;;;;;2.10;2.00;;;19.30;54.60;;;;;;6171614;23;20136;-86
2022/05/26 10:49:13;;;;;;;2.15;1.95;;;19.30;54.40;;;;;;6171265;23;20197;-86
2022/05/26 10:51:45;;;;;;;2.85;2.03;;;19.30;54.40;;;;;;6197015;23;20130;-86
2022/05/26 10:54:19;;;;;;;2.20;2.00;;;19.40;54.50;;;;;;6196812;23;20172;-86
2022/05/26 10:56:52;;;;;;;2.20;2.00;;;19.30;54.00;;;;;;6172616;23;20196;-86
2022/05/26 10:59:23;;;;;;;2.25;2.05;;;19.30;54.30;;;;;;6196748;23;20157;-86
2022/05/26 11:01:52;;;;;;;2.95;1.88;;;19.30;54.20;;;;;;6196163;23;20557;-86
2022/05/26 11:04:40;;;;;;;2.92;2.40;;;19.30;54.20;;;;;;6220642;23;20134;-85
2022/05/26 11:07:10;;;;;;;2.00;1.88;;;19.30;54.40;;;;;;6179770;23;20156;-86
2022/05/26 11:09:40;;;;;;;2.03;1.92;;;19.30;54.00;;;;;;6197482;23;20149;-86
2022/05/26 11:12:11;;;;;;;2.70;2.45;;;19.40;54.20;;;;;;6221425;23;20129;-86
2022/05/26 11:17:44;;;;;;;2.40;2.20;;;19.30;54.20;;;;;;6202406;23;20587;-86
2022/05/26 11:20:28;;;;;;;2.13;1.98;;;19.30;54.50;;;;;;6221910;23;20584;-86
2022/05/26 11:22:55;;;;;;;2.38;2.17;;;19.30;54.20;;;;;;6172901;23;20229;-86
2022/05/26 11:25:29;;;;;;;2.60;2.20;;;19.20;54.40;;;;;;6171089;23;20590;-86
2022/05/26 11:28:11;;;;;;;2.00;1.90;;;19.40;54.20;;;;;;6171394;23;20165;-85
2022/05/26 11:36:08;;;;;;;2.38;2.08;;;19.30;53.90;;;;;;6201780;23;20165;-86
2022/05/26 11:38:35;;;;;;;2.47;2.10;;;19.30;53.90;;;;;;6178303;23;20629;-86
2022/05/26 11:41:05;;;;;;;1.90;1.80;;;19.20;53.80;;;;;;6192826;23;20189;-87
2022/05/26 11:43:39;;;;;;;2.72;2.00;;;19.30;53.70;;;;;;6143293;23;20138;-86
2022/05/26 11:46:05;;;;;;;2.53;2.33;;;19.30;53.60;;;;;;6144510;23;20142;-86
2022/05/26 11:48:42;;;;;;;2.40;2.20;;;19.30;53.60;;;;;;6167998;23;20184;-85
2022/05/26 11:51:39;;;;;;;2.30;1.83;;;19.30;53.40;;;;;;6167559;23;20138;-86
2022/05/26 11:54:05;;;;;;;2.00;1.90;;;19.30;53.20;;;;;;6193030;23;20612;-86
2022/05/26 11:56:36;;;;;;;2.40;2.20;;;19.30;53.40;;;;;;6141795;23;20146;-86
2022/05/26 11:59:40;;;;;;;1.92;1.83;;;19.30;53.50;;;;;;6191289;23;20202;-85
2022/05/26 12:02:14;;;;;;;2.47;2.28;;;19.30;53.50;;;;;;6200940;23;20133;-86
2022/05/26 12:04:41;;;;;;;2.15;1.95;;;19.30;53.50;;;;;;6167632;23;20133;-86
2022/05/26 12:07:34;;;;;;;2.35;2.15;;;19.40;53.60;;;;;;6166881;23;20162;-85
2022/05/26 12:10:00;;;;;;;1.75;1.65;;;19.40;53.50;;;;;;6191462;23;20138;-85
2022/05/26 12:12:30;;;;;;;1.85;1.75;;;19.30;53.50;;;;;;6142329;23;20151;-86
2022/05/26 12:15:06;;;;;;;2.65;2.28;;;19.30;53.60;;;;;;6167086;23;20237;-85
2022/05/26 12:17:40;;;;;;;2.85;2.00;;;19.30;53.70;;;;;;6163981;23;20135;-86
2022/05/26 12:20:28;;;;;;;2.15;1.95;;;19.20;53.60;;;;;;6188483;23;20192;-85
2022/05/26 12:23:18;;;;;;;2.17;1.98;;;19.30;53.70;;;;;;6150681;23;20142;-86
2022/05/26 12:25:46;;;;;;;2.70;1.95;;;19.30;53.60;;;;;;6167339;23;20575;-86
2022/05/26 12:28:29;;;;;;;2.38;2.17;;;19.30;53.40;;;;;;6167609;23;20146;-86
2022/05/26 12:31:04;;;;;;;2.10;1.90;;;19.30;53.40;;;;;;6169219;23;20146;-85
2022/05/26 12:33:41;;;;;;;2.63;2.42;;;19.30;53.40;;;;;;6102244;23;20150;-86
2022/05/26 12:36:40;;;;;;;2.78;2.17;;;19.30;53.80;;;;;;6128808;23;20172;-86
2022/05/26 12:39:43;;;;;;;2.40;2.20;;;19.30;53.30;;;;;;6128923;23;20290;-86
2022/05/26 12:42:22;;;;;;;2.38;1.92;;;19.30;53.20;;;;;;6160713;23;20154;-86
2022/05/26 12:45:22;;;;;;;2.20;2.00;;;19.20;53.00;;;;;;6184856;23;20142;-86
2022/05/26 12:48:03;;;;;;;3.15;2.00;;;19.30;53.10;;;;;;6141884;23;20161;-86
2022/05/26 12:50:31;;;;;;;2.05;1.92;;;19.20;53.00;;;;;;6112581;23;20146;-86
2022/05/26 12:53:06;;;;;;;2.10;1.90;;;19.30;53.00;;;;;;6160074;23;20153;-86
2022/05/26 12:55:38;;;;;;;2.25;1.98;;;19.20;53.00;;;;;;6112435;23;20151;-86
2022/05/26 12:58:11;;;;;;;2.25;2.05;;;19.30;52.80;;;;;;6111173;23;20146;-86
2022/05/26 13:00:44;;;;;;;2.13;1.92;;;19.20;52.90;;;;;;6112174;23;20553;-86
2022/05/26 13:03:30;;;;;;;2.13;2.00;;;19.20;52.90;;;;;;6136573;23;20217;-85
2022/05/26 13:05:58;;;;;;;2.60;2.40;;;19.20;52.80;;;;;;6194997;23;20276;-86
2022/05/26 13:08:24;;;;;;;2.30;2.10;;;19.30;53.20;;;;;;6219909;23;20130;-86
2022/05/26 13:10:53;;;;;;;2.20;2.10;;;19.20;52.90;;;;;;6169535;23;20227;-86
2022/05/26 13:13:24;;;;;;;1.92;1.83;;;19.20;53.00;;;;;;6171175;23;20146;-86
2022/05/26 13:15:50;;;;;;;2.05;1.92;;;19.20;52.80;;;;;;6196078;23;20144;-86
2022/05/26 13:18:18;;;;;;;2.20;2.10;;;19.20;52.80;;;;;;6170349;23;20149;-86
2022/05/26 13:20:44;;;;;;;2.38;2.20;;;19.20;52.90;;;;;;6195206;23;20627;-87
2022/05/26 13:23:10;;;;;;;2.30;2.00;;;19.20;53.00;;;;;;6195120;23;20145;-87
2022/05/26 13:25:35;;;;;;;1.98;1.85;;;19.10;52.80;;;;;;6220251;23;20125;-86
2022/05/26 13:28:03;;;;;;;2.10;1.98;;;19.20;52.50;;;;;;6195269;23;20138;-87
2022/05/26 13:33:21;;;;;;;2.00;1.90;;;19.20;52.50;;;;;;6204646;23;20217;-86
2022/05/26 13:35:49;;;;;;;2.55;2.35;;;19.20;52.70;;;;;;6171052;23;20160;-86
2022/05/26 13:38:36;;;;;;;2.10;1.90;;;19.20;52.60;;;;;;6174402;23;20194;-86
2022/05/26 13:41:03;;;;;;;2.53;2.20;;;19.20;52.50;;;;;;6190097;23;20166;-86
2022/05/26 13:43:30;;;;;;;2.13;2.03;;;19.30;52.70;;;;;;6214924;23;20273;-86
2022/05/26 13:45:56;;;;;;;2.03;1.92;;;19.20;52.40;;;;;;6183424;23;20188;-86